createdAt,value
2023-11-10T00:01:29.607Z,100.00
2023-11-10T00:03:57.525Z,100.00
2023-11-10T00:06:25.123Z,100.00
2023-11-10T00:08:53.718Z,98.64
2023-11-10T00:11:21.587Z,98.56
2023-11-10T00:13:50.159Z,96.24
2023-11-10T00:16:19.856Z,96.75
2023-11-10T00:18:47.737Z,97.16
2023-11-10T00:21:20.940Z,96.78
2023-11-10T00:23:49.400Z,97.39
2023-11-10T00:26:24.149Z,97.19
2023-11-10T00:28:53.555Z,97.92
2023-11-10T00:31:21.094Z,96.35
2023-11-10T00:33:54.892Z,94.57
2023-11-10T00:36:26.113Z,93.93
2023-11-10T00:38:53.572Z,95.98
2023-11-10T00:41:20.998Z,95.80
2023-11-10T00:43:51.185Z,95.82
2023-11-10T00:46:18.735Z,95.60
2023-11-10T00:48:46.305Z,95.61
2023-11-10T00:51:14.335Z,93.83
2023-11-10T00:53:43.353Z,94.74
2023-11-10T00:56:10.799Z,95.49
2023-11-10T00:58:38.526Z,95.42
2023-11-10T01:01:05.940Z,95.39
2023-11-10T01:03:33.579Z,94.66
2023-11-10T01:06:02.185Z,93.05
2023-11-10T01:08:29.663Z,93.24
2023-11-10T01:10:57.128Z,93.40
2023-11-10T01:13:25.045Z,93.98
2023-11-10T01:15:52.574Z,93.49
2023-11-10T01:18:20.109Z,96.60
2023-11-10T01:20:47.845Z,96.75
2023-11-10T01:23:15.180Z,96.45
2023-11-10T01:25:43.249Z,94.90
2023-11-10T01:28:11.046Z,95.07
2023-11-10T01:30:38.594Z,97.96
2023-11-10T01:33:08.645Z,96.75
2023-11-10T01:35:36.614Z,98.90
2023-11-10T01:38:04.058Z,100.00
2023-11-10T01:40:42.710Z,100.00
2023-11-10T01:43:16.192Z,100.00
2023-11-10T01:45:45.361Z,99.49
2023-11-10T01:48:14.968Z,98.03
2023-11-10T01:50:44.160Z,97.76
2023-11-10T01:53:12.983Z,99.00
2023-11-10T01:55:44.905Z,98.97
2023-11-10T01:58:15.764Z,98.26
2023-11-10T02:00:43.574Z,99.55
2023-11-10T02:03:11.977Z,100.00
2023-11-10T02:05:39.879Z,100.00
2023-11-10T02:08:10.782Z,100.00
2023-11-10T02:10:38.657Z,100.00
2023-11-10T02:13:06.874Z,100.00
2023-11-10T02:15:34.474Z,100.00
2023-11-10T02:18:02.512Z,100.00
2023-11-10T02:20:30.156Z,100.00
2023-11-10T02:22:58.104Z,100.00
2023-11-10T02:25:25.671Z,100.00
2023-11-10T02:27:53.599Z,100.00
2023-11-10T02:30:21.319Z,100.00
2023-11-10T02:32:48.936Z,100.00
2023-11-10T02:35:16.921Z,100.00
2023-11-10T02:37:44.687Z,100.00
2023-11-10T02:40:12.392Z,100.00
2023-11-10T02:42:40.564Z,100.00
2023-11-10T02:45:10.074Z,100.00
2023-11-10T02:47:37.734Z,100.00
2023-11-10T02:50:06.683Z,100.00
2023-11-10T02:52:34.775Z,100.00
2023-11-10T02:55:02.294Z,100.00
2023-11-10T02:57:30.053Z,100.00
2023-11-10T02:59:57.581Z,100.00
2023-11-10T03:02:25.141Z,100.00
2023-11-10T03:04:53.064Z,100.00
2023-11-10T03:07:20.448Z,100.00
2023-11-10T03:09:48.345Z,100.00
2023-11-10T03:12:16.270Z,100.00
2023-11-10T03:14:43.945Z,100.00
2023-11-10T03:17:12.098Z,100.00
2023-11-10T03:19:42.438Z,100.00
2023-11-10T03:22:11.769Z,100.00
2023-11-10T03:24:39.386Z,100.00
2023-11-10T03:27:07.312Z,100.00
2023-11-10T03:29:36.324Z,100.00
2023-11-10T03:32:08.001Z,100.00
2023-11-10T03:34:44.971Z,100.00
2023-11-10T03:37:13.948Z,100.00
2023-11-10T03:39:41.591Z,100.00
2023-11-10T03:42:09.523Z,100.00
2023-11-10T03:44:39.630Z,100.00
2023-11-10T03:47:07.515Z,100.00
2023-11-10T03:49:35.644Z,100.00
2023-11-10T03:52:03.109Z,100.00
2023-11-10T03:54:32.214Z,100.00
2023-11-10T03:57:00.134Z,100.00
2023-11-10T03:59:27.767Z,100.00
2023-11-10T04:01:55.650Z,100.00
2023-11-10T04:04:23.497Z,100.00
2023-11-10T04:06:51.570Z,100.00
2023-11-10T04:09:19.436Z,100.00
2023-11-10T04:11:47.219Z,100.00
2023-11-10T04:14:14.717Z,100.00
2023-11-10T04:16:42.326Z,100.00
2023-11-10T04:19:10.289Z,100.00
2023-11-10T04:21:37.797Z,100.00
2023-11-10T04:24:05.865Z,100.00
2023-11-10T04:26:33.621Z,100.00
2023-11-10T04:29:01.000Z,100.00
2023-11-10T04:31:30.383Z,100.00
2023-11-10T04:33:59.468Z,100.00
2023-11-10T04:36:27.261Z,100.00
2023-11-10T04:38:54.896Z,100.00
2023-11-10T04:41:23.458Z,100.00
2023-11-10T04:43:51.008Z,100.00
2023-11-10T04:46:18.773Z,100.00
2023-11-10T04:48:46.871Z,100.00
2023-11-10T04:51:14.493Z,100.00
2023-11-10T04:53:42.283Z,100.00
2023-11-10T04:56:10.123Z,100.00
2023-11-10T04:58:37.698Z,100.00
2023-11-10T05:01:05.410Z,100.00
2023-11-10T05:03:34.762Z,100.00
2023-11-10T05:06:03.120Z,100.00
2023-11-10T05:08:30.555Z,100.00
2023-11-10T05:10:58.291Z,100.00
2023-11-10T05:13:25.933Z,100.00
2023-11-10T05:15:53.409Z,100.00
2023-11-10T05:20:56.526Z,100.00
2023-11-10T05:23:24.394Z,100.00
2023-11-10T05:25:52.157Z,100.00
2023-11-10T05:28:19.591Z,100.00
2023-11-10T05:30:48.606Z,100.00
2023-11-10T05:33:16.123Z,100.00
2023-11-10T05:35:44.523Z,100.00
2023-11-10T05:38:13.243Z,100.00
2023-11-10T05:40:40.683Z,100.00
2023-11-10T05:43:08.245Z,100.00
2023-11-10T05:45:37.081Z,100.00
2023-11-10T05:48:05.030Z,100.00
2023-11-10T05:50:33.737Z,100.00
2023-11-10T05:53:02.814Z,100.00
2023-11-10T05:55:30.598Z,100.00
2023-11-10T05:57:58.026Z,100.00
2023-11-10T06:00:26.093Z,100.00
2023-11-10T06:02:53.876Z,100.00
2023-11-10T06:05:24.352Z,100.00
2023-11-10T06:07:53.109Z,100.00
2023-11-10T06:10:22.454Z,100.00
2023-11-10T06:12:51.708Z,100.00
2023-11-10T06:15:21.770Z,100.00
2023-11-10T06:17:51.450Z,100.00
2023-11-10T06:20:18.855Z,100.00
2023-11-10T06:22:46.418Z,100.00
2023-11-10T06:25:14.256Z,100.00
2023-11-10T06:27:42.510Z,100.00
2023-11-10T06:30:12.141Z,100.00
2023-11-10T06:32:40.856Z,100.00
2023-11-10T06:35:10.801Z,100.00
2023-11-10T06:37:38.305Z,100.00
2023-11-10T06:40:07.195Z,100.00
2023-11-10T06:42:35.398Z,100.00
2023-11-10T06:45:04.690Z,100.00
2023-11-10T06:47:34.535Z,100.00
2023-11-10T06:50:03.492Z,100.00
2023-11-10T06:52:31.533Z,100.00
2023-11-10T06:55:00.792Z,100.00
2023-11-10T06:57:28.693Z,100.00
2023-11-10T06:59:56.362Z,100.00
2023-11-10T07:02:24.267Z,100.00
2023-11-10T07:04:52.543Z,100.00
2023-11-10T07:07:21.111Z,100.00
2023-11-10T07:09:49.701Z,100.00
2023-11-10T07:12:17.397Z,100.00
2023-11-10T07:14:45.060Z,100.00
2023-11-10T07:17:16.881Z,100.00
2023-11-10T07:19:45.529Z,100.00
2023-11-10T07:22:13.383Z,100.00
2023-11-10T07:24:41.235Z,100.00
2023-11-10T07:27:09.244Z,100.00
2023-11-10T07:29:37.720Z,100.00
2023-11-10T07:32:05.371Z,100.00
2023-11-10T07:34:33.054Z,100.00
2023-11-10T07:37:01.230Z,100.00
2023-11-10T07:39:30.280Z,100.00
2023-11-10T07:41:58.455Z,100.00
2023-11-10T07:44:26.426Z,100.00
2023-11-10T07:46:54.983Z,100.00
2023-11-10T07:49:22.619Z,100.00
2023-11-10T07:51:55.275Z,100.00
2023-11-10T07:54:23.873Z,100.00
2023-11-10T07:56:52.328Z,100.00
2023-11-10T07:59:20.242Z,100.00
2023-11-10T08:01:47.795Z,100.00
2023-11-10T08:04:16.781Z,100.00
2023-11-10T08:06:45.173Z,100.00
2023-11-10T08:09:16.640Z,100.00
2023-11-10T08:11:52.529Z,100.00
2023-11-10T08:14:23.012Z,100.00
2023-11-10T08:16:51.071Z,100.00
2023-11-10T08:19:19.124Z,100.00
2023-11-10T08:21:47.084Z,100.00
2023-11-10T08:24:15.426Z,100.00
2023-11-10T08:26:43.482Z,100.00
2023-11-10T08:29:11.211Z,100.00
2023-11-10T08:31:39.162Z,100.00
2023-11-10T08:34:06.831Z,100.00
2023-11-10T08:36:36.172Z,100.00
2023-11-10T08:39:04.150Z,100.00
2023-11-10T08:41:31.773Z,100.00
2023-11-10T08:43:59.444Z,100.00
2023-11-10T08:46:27.765Z,100.00
2023-11-10T08:48:55.424Z,100.00
2023-11-10T08:51:22.911Z,100.00
2023-11-10T08:53:51.253Z,100.00
2023-11-10T08:56:18.705Z,100.00
2023-11-10T08:58:46.555Z,100.00
2023-11-10T09:01:14.458Z,100.00
2023-11-10T09:03:42.133Z,100.00
2023-11-10T09:06:09.943Z,100.00
2023-11-10T09:08:37.868Z,100.00
2023-11-10T09:11:05.348Z,100.00
2023-11-10T09:13:32.788Z,100.00
2023-11-10T09:16:02.764Z,100.00
2023-11-10T09:18:30.634Z,100.00
2023-11-10T09:20:58.143Z,100.00
2023-11-10T09:23:30.152Z,100.00
2023-11-10T09:25:58.128Z,100.00
2023-11-10T09:28:25.907Z,100.00
2023-11-10T09:30:55.248Z,100.00
2023-11-10T09:33:26.020Z,100.00
2023-11-10T09:35:54.498Z,100.00
2023-11-10T09:38:22.419Z,100.00
2023-11-10T09:40:50.689Z,100.00
2023-11-10T09:43:18.518Z,100.00
2023-11-10T09:45:56.214Z,100.00
2023-11-10T09:48:24.637Z,100.00
2023-11-10T09:50:53.747Z,100.00
2023-11-10T09:53:23.620Z,100.00
2023-11-10T09:55:52.717Z,100.00
2023-11-10T09:58:22.017Z,100.00
2023-11-10T10:00:50.199Z,100.00
2023-11-10T10:03:18.573Z,100.00
2023-11-10T10:05:47.040Z,100.00
2023-11-10T10:08:20.752Z,100.00
2023-11-10T10:10:52.030Z,100.00
2023-11-10T10:13:21.937Z,100.00
2023-11-10T10:15:49.932Z,100.00
2023-11-10T10:18:18.441Z,100.00
2023-11-10T10:20:47.318Z,100.00
2023-11-10T10:23:16.722Z,100.00
2023-11-10T10:25:44.196Z,100.00
2023-11-10T10:28:11.933Z,100.00
2023-11-10T10:30:40.277Z,100.00
2023-11-10T10:33:08.646Z,100.00
2023-11-10T10:35:36.758Z,100.00
2023-11-10T10:38:06.069Z,100.00
2023-11-10T10:40:37.623Z,100.00
2023-11-10T10:43:08.153Z,100.00
2023-11-10T10:45:38.753Z,100.00
2023-11-10T10:48:07.072Z,100.00
2023-11-10T10:50:35.308Z,100.00
2023-11-10T10:53:07.898Z,100.00
2023-11-10T10:55:36.554Z,100.00
2023-11-10T10:58:04.895Z,100.00
2023-11-10T11:00:33.217Z,99.45
2023-11-10T11:03:25.006Z,100.00
2023-11-10T11:06:21.224Z,100.00
2023-11-10T11:09:11.675Z,100.00
2023-11-10T11:12:00.580Z,100.00
2023-11-10T11:14:53.473Z,100.00
2023-11-10T11:17:27.669Z,100.00
2023-11-10T11:19:57.317Z,100.00
2023-11-10T11:22:24.774Z,100.00
2023-11-10T11:24:52.349Z,99.84
2023-11-10T11:27:26.223Z,97.75
2023-11-10T11:29:57.363Z,96.75
2023-11-10T11:32:27.124Z,96.95
2023-11-10T11:34:55.133Z,96.30
2023-11-10T11:37:23.581Z,95.25
2023-11-10T11:39:55.455Z,95.01
2023-11-10T11:42:26.198Z,92.48
2023-11-10T11:44:59.201Z,92.45
2023-11-10T11:47:33.397Z,93.47
2023-11-10T11:50:03.087Z,93.82
2023-11-10T11:52:31.160Z,92.45
2023-11-10T11:55:01.898Z,93.56
2023-11-10T11:57:33.660Z,94.17
2023-11-10T12:00:06.453Z,95.48
2023-11-10T12:02:37.174Z,93.11
2023-11-10T12:05:09.165Z,90.81
2023-11-10T12:07:36.885Z,90.41
2023-11-10T12:10:05.010Z,88.68
2023-11-10T12:12:32.575Z,88.98
2023-11-10T12:15:00.616Z,88.35
2023-11-10T12:17:28.522Z,87.50
2023-11-10T12:19:56.162Z,87.90
2023-11-10T12:22:24.050Z,88.97
2023-11-10T12:24:58.475Z,89.66
2023-11-10T12:27:26.307Z,91.55
2023-11-10T12:29:54.599Z,92.55
2023-11-10T12:32:22.395Z,92.15
2023-11-10T12:34:52.964Z,92.17
2023-11-10T12:37:20.656Z,91.24
2023-11-10T12:39:49.534Z,86.87
2023-11-10T12:42:19.002Z,86.21
2023-11-10T12:44:56.663Z,83.71
2023-11-10T12:47:33.403Z,82.11
2023-11-10T12:50:02.887Z,83.35
2023-11-10T12:52:32.421Z,83.87
2023-11-10T12:55:01.590Z,84.20
2023-11-10T12:57:29.397Z,84.46
2023-11-10T13:00:08.873Z,82.20
2023-11-10T13:02:36.531Z,82.76
2023-11-10T13:05:04.654Z,82.91
2023-11-10T13:07:32.153Z,83.77
2023-11-10T13:10:00.096Z,82.04
2023-11-10T13:12:27.978Z,83.19
2023-11-10T13:14:55.528Z,82.18
2023-11-10T13:17:22.994Z,81.04
2023-11-10T13:19:51.508Z,80.23
2023-11-10T13:22:21.243Z,78.79
2023-11-10T13:24:51.914Z,78.41
2023-11-10T13:27:22.519Z,77.75
2023-11-10T13:29:49.930Z,76.94
2023-11-10T13:32:17.848Z,76.86
2023-11-10T13:34:45.867Z,77.31
2023-11-10T13:37:15.929Z,78.63
2023-11-10T13:39:43.921Z,78.77
2023-11-10T13:42:12.500Z,80.28
2023-11-10T13:44:40.148Z,79.70
2023-11-10T13:47:09.432Z,80.50
2023-11-10T13:49:39.177Z,81.26
2023-11-10T13:52:07.141Z,82.26
2023-11-10T13:54:34.797Z,82.99
2023-11-10T13:57:02.726Z,84.46
2023-11-10T13:59:30.207Z,84.65
2023-11-10T14:01:57.933Z,85.18
2023-11-10T14:04:26.096Z,86.08
2023-11-10T14:06:53.959Z,87.69
2023-11-10T14:09:22.720Z,87.93
2023-11-10T14:11:50.615Z,88.85
2023-11-10T14:14:18.270Z,89.16
2023-11-10T14:16:48.081Z,89.37
2023-11-10T14:19:16.649Z,89.62
2023-11-10T14:21:44.408Z,89.77
2023-11-10T14:24:11.935Z,90.54
2023-11-10T14:26:39.884Z,90.61
2023-11-10T14:29:08.464Z,90.84
2023-11-10T14:31:36.412Z,90.23
2023-11-10T14:34:04.977Z,91.28
2023-11-10T14:36:34.145Z,92.07
2023-11-10T14:39:02.367Z,92.20
2023-11-10T14:41:33.973Z,92.41
2023-11-10T14:44:03.508Z,92.42
2023-11-10T14:46:33.462Z,93.18
2023-11-10T14:49:01.484Z,92.88
2023-11-10T14:51:37.171Z,93.38
2023-11-10T14:54:05.196Z,94.39
2023-11-10T14:56:32.746Z,93.58
2023-11-10T14:59:00.713Z,92.85
2023-11-10T15:01:29.883Z,92.96
2023-11-10T15:03:57.494Z,93.41
2023-11-10T15:06:25.036Z,94.00
2023-11-10T15:08:54.364Z,92.06
2023-11-10T15:11:22.508Z,92.25
2023-11-10T15:13:51.845Z,93.16
2023-11-10T15:16:19.796Z,93.60
2023-11-10T15:18:50.133Z,92.43
2023-11-10T15:21:17.659Z,92.95
2023-11-10T15:23:45.492Z,93.01
2023-11-10T15:26:13.061Z,93.30
2023-11-10T15:28:43.133Z,93.31
2023-11-10T15:31:13.385Z,92.37
2023-11-10T15:33:41.087Z,93.51
2023-11-10T15:36:10.707Z,93.98
2023-11-10T15:38:38.866Z,93.67
2023-11-10T15:41:06.579Z,93.42
2023-11-10T15:43:35.170Z,93.80
2023-11-10T15:46:03.008Z,94.72
2023-11-10T15:48:37.356Z,95.96
2023-11-10T15:51:11.406Z,96.21
2023-11-10T15:53:39.023Z,95.33
2023-11-10T15:56:06.772Z,96.67
2023-11-10T15:58:34.647Z,97.05
2023-11-10T16:01:02.251Z,97.11
2023-11-10T16:03:30.483Z,96.36
2023-11-10T16:05:58.471Z,95.89
2023-11-10T16:08:26.017Z,96.33
2023-11-10T16:10:53.920Z,96.20
2023-11-10T16:13:21.889Z,96.89
2023-11-10T16:15:50.180Z,97.51
2023-11-10T16:18:18.070Z,97.26
2023-11-10T16:20:45.951Z,97.25
2023-11-10T16:23:13.643Z,97.54
2023-11-10T16:25:42.017Z,98.33
2023-11-10T16:28:10.478Z,98.14
2023-11-10T16:30:39.451Z,98.57
2023-11-10T16:33:07.353Z,98.46
2023-11-10T16:35:34.951Z,97.96
2023-11-10T16:38:04.602Z,97.76
2023-11-10T16:40:33.560Z,98.03
2023-11-10T16:43:01.268Z,98.21
2023-11-10T16:45:31.758Z,98.33
2023-11-10T16:47:59.844Z,99.67
2023-11-10T16:50:28.118Z,100.00
2023-11-10T16:52:56.163Z,99.84
2023-11-10T16:55:25.077Z,100.00
2023-11-10T16:57:52.593Z,100.00
2023-11-10T17:00:24.323Z,100.00
2023-11-10T17:02:57.956Z,100.00
2023-11-10T17:05:25.588Z,100.00
2023-11-10T17:07:54.051Z,100.00
2023-11-10T17:10:21.988Z,100.00
2023-11-10T17:12:50.522Z,100.00
2023-11-10T17:15:18.123Z,100.00
2023-11-10T17:17:46.663Z,100.00
2023-11-10T17:20:14.305Z,100.00
2023-11-10T17:22:42.003Z,100.00
2023-11-10T17:25:11.898Z,100.00
2023-11-10T17:27:40.417Z,100.00
2023-11-10T17:30:10.814Z,100.00
2023-11-10T17:32:38.783Z,100.00
2023-11-10T17:35:06.882Z,100.00
2023-11-10T17:37:34.626Z,100.00
2023-11-10T17:40:03.734Z,100.00
2023-11-10T17:42:35.209Z,100.00
2023-11-10T17:45:08.081Z,100.00
2023-11-10T17:47:39.190Z,100.00
2023-11-10T17:50:09.809Z,100.00
2023-11-10T17:52:38.007Z,100.00
2023-11-10T17:55:05.958Z,100.00
2023-11-10T17:57:35.628Z,100.00
2023-11-10T18:00:08.719Z,100.00
2023-11-10T18:02:44.759Z,100.00
2023-11-10T18:05:14.449Z,100.00
2023-11-10T18:07:46.282Z,100.00
2023-11-10T18:10:14.515Z,100.00
2023-11-10T18:12:42.298Z,100.00
2023-11-10T18:15:13.090Z,100.00
2023-11-10T18:17:41.429Z,100.00
2023-11-10T18:20:09.630Z,100.00
2023-11-10T18:22:37.407Z,100.00
2023-11-10T18:25:06.273Z,100.00
2023-11-10T18:27:34.909Z,100.00
2023-11-10T18:30:05.214Z,100.00
2023-11-10T18:32:33.587Z,100.00
2023-11-10T18:35:03.000Z,100.00
2023-11-10T18:37:33.116Z,100.00
2023-11-10T18:40:04.716Z,100.00
2023-11-10T18:42:34.217Z,100.00
2023-11-10T18:45:04.223Z,100.00
2023-11-10T18:47:32.721Z,100.00
2023-11-10T18:50:00.592Z,100.00
2023-11-10T18:52:30.886Z,100.00
2023-11-10T18:54:59.697Z,100.00
2023-11-10T18:57:27.787Z,100.00
2023-11-10T18:59:55.802Z,100.00
2023-11-10T19:02:23.422Z,100.00
2023-11-10T19:04:52.255Z,100.00
2023-11-10T19:07:19.959Z,100.00
2023-11-10T19:09:49.266Z,100.00
2023-11-10T19:12:16.950Z,100.00
2023-11-10T19:14:47.838Z,100.00
2023-11-10T19:17:18.012Z,100.00
2023-11-10T19:19:46.159Z,100.00
2023-11-10T19:22:13.892Z,100.00
2023-11-10T19:24:41.534Z,100.00
2023-11-10T19:27:09.832Z,100.00
2023-11-10T19:29:37.422Z,100.00
2023-11-10T19:32:06.346Z,100.00
2023-11-10T19:34:34.412Z,100.00
2023-11-10T19:37:02.057Z,100.00
2023-11-10T19:39:30.895Z,100.00
2023-11-10T19:42:00.611Z,100.00
2023-11-10T19:44:28.682Z,100.00
2023-11-10T19:46:56.300Z,100.00
2023-11-10T19:49:24.628Z,100.00
2023-11-10T19:56:53.689Z,100.00
2023-11-10T19:59:23.601Z,100.00
2023-11-10T20:01:53.121Z,100.00
2023-11-10T20:04:21.195Z,100.00
2023-11-10T20:06:48.723Z,100.00
2023-11-10T20:09:16.927Z,100.00
2023-11-10T20:11:45.290Z,100.00
2023-11-10T20:14:13.056Z,100.00
2023-11-10T20:16:40.631Z,100.00
2023-11-10T20:19:10.758Z,100.00
2023-11-10T20:21:38.470Z,100.00
2023-11-10T20:24:07.539Z,100.00
2023-11-10T20:26:35.515Z,100.00
2023-11-10T20:29:03.079Z,100.00
2023-11-10T20:31:30.589Z,100.00
2023-11-10T20:33:58.488Z,100.00
2023-11-10T20:36:26.298Z,100.00
2023-11-10T20:38:54.285Z,100.00
2023-11-10T20:41:22.525Z,100.00
2023-11-10T20:43:51.004Z,100.00
2023-11-10T20:46:18.583Z,100.00
2023-11-10T20:48:50.158Z,100.00
2023-11-10T20:51:22.055Z,100.00
2023-11-10T20:53:50.490Z,100.00
2023-11-10T20:56:18.719Z,100.00
2023-11-10T20:58:46.538Z,100.00
2023-11-10T21:01:14.488Z,100.00
2023-11-10T21:03:42.844Z,100.00
2023-11-10T21:06:12.129Z,100.00
2023-11-10T21:08:41.749Z,100.00
2023-11-10T21:11:10.894Z,100.00
2023-11-10T21:13:38.561Z,100.00
2023-11-10T21:16:06.736Z,100.00
2023-11-10T21:18:37.948Z,100.00
2023-11-10T21:21:06.649Z,100.00
2023-11-10T21:23:34.286Z,100.00
2023-11-10T21:26:01.910Z,100.00
2023-11-10T21:28:29.814Z,100.00
2023-11-10T21:30:57.824Z,100.00
2023-11-10T21:33:28.577Z,100.00
2023-11-10T21:35:56.703Z,100.00
2023-11-10T21:38:25.735Z,100.00
2023-11-10T21:40:53.254Z,100.00
2023-11-10T21:43:21.151Z,100.00
2023-11-10T21:45:49.012Z,100.00
2023-11-10T21:48:18.169Z,100.00
2023-11-10T21:50:49.368Z,100.00
2023-11-10T21:53:17.082Z,100.00
2023-11-10T21:55:46.377Z,100.00
2023-11-10T21:58:18.462Z,100.00
2023-11-10T22:00:47.491Z,100.00
2023-11-10T22:03:15.646Z,100.00
2023-11-10T22:05:43.337Z,100.00
2023-11-10T22:08:10.935Z,100.00
2023-11-10T22:10:40.738Z,100.00
2023-11-10T22:13:08.656Z,100.00
2023-11-10T22:15:36.549Z,100.00
2023-11-10T22:18:08.833Z,100.00
2023-11-10T22:20:37.192Z,100.00
2023-11-10T22:23:05.053Z,100.00
2023-11-10T22:25:32.920Z,100.00
2023-11-10T22:28:00.748Z,100.00
2023-11-10T22:30:28.699Z,100.00
2023-11-10T22:32:56.463Z,100.00
2023-11-10T22:35:24.641Z,100.00
2023-11-10T22:37:52.556Z,100.00
2023-11-10T22:40:20.140Z,100.00
2023-11-10T22:42:48.436Z,100.00
2023-11-10T22:45:17.698Z,100.00
2023-11-10T22:47:48.264Z,100.00
2023-11-10T22:50:17.005Z,100.00
2023-11-10T22:52:44.670Z,100.00
2023-11-10T22:55:16.819Z,100.00
2023-11-10T22:57:47.091Z,100.00
2023-11-10T23:00:34.231Z,100.00
2023-11-10T23:03:08.428Z,100.00
2023-11-10T23:05:36.794Z,100.00
2023-11-10T23:08:05.031Z,100.00
2023-11-10T23:10:32.507Z,100.00
2023-11-10T23:13:00.480Z,100.00
2023-11-10T23:15:29.208Z,100.00
2023-11-10T23:18:00.157Z,100.00
2023-11-10T23:20:34.547Z,100.00
2023-11-10T23:23:04.669Z,100.00
2023-11-10T23:25:34.080Z,100.00
2023-11-10T23:28:01.680Z,100.00
2023-11-10T23:30:29.132Z,100.00
2023-11-10T23:32:56.952Z,100.00
2023-11-10T23:35:24.499Z,100.00
2023-11-10T23:37:52.158Z,100.00
2023-11-10T23:40:20.783Z,100.00
2023-11-10T23:42:48.164Z,100.00
2023-11-10T23:45:16.837Z,100.00
2023-11-10T23:47:45.902Z,100.00
2023-11-10T23:50:13.322Z,100.00
2023-11-10T23:52:41.501Z,100.00
2023-11-10T23:55:09.569Z,100.00
2023-11-10T23:57:39.124Z,100.00
